createdAt,value
2016-03-26T00:00:49.873Z,92.75
2016-03-26T00:01:49.907Z,92.85
2016-03-26T00:02:49.909Z,92.85
2016-03-26T00:03:49.944Z,92.27
2016-03-26T00:04:49.946Z,92.66
2016-03-26T00:05:49.965Z,92.46
2016-03-26T00:06:49.983Z,92.85
2016-03-26T00:07:50.001Z,92.27
2016-03-26T00:08:50.004Z,92.56
2016-03-26T00:09:50.038Z,92.18
2016-03-26T00:10:50.041Z,92.18
2016-03-26T00:11:50.122Z,92.37
2016-03-26T00:12:50.077Z,92.27
2016-03-26T00:13:50.096Z,92.46
2016-03-26T00:14:50.114Z,92.18
2016-03-26T00:15:50.132Z,92.85
2016-03-26T00:16:50.150Z,92.56
2016-03-26T00:17:50.169Z,92.75
2016-03-26T00:18:50.187Z,92.85
2016-03-26T00:19:50.190Z,92.37
2016-03-26T00:20:50.208Z,92.08
2016-03-26T00:21:50.226Z,92.27
2016-03-26T00:22:50.260Z,92.37
2016-03-26T00:23:50.262Z,92.27
2016-03-26T00:24:50.281Z,92.18
2016-03-26T00:25:50.315Z,92.08
2016-03-26T00:26:50.334Z,91.99
2016-03-26T00:27:50.352Z,91.99
2016-03-26T00:28:50.354Z,92.27
2016-03-26T00:29:50.373Z,92.18
2016-03-26T00:30:50.375Z,92.18
2016-03-26T00:31:50.394Z,92.18
2016-03-26T00:32:50.412Z,92.08
2016-03-26T00:33:50.445Z,92.18
2016-03-26T00:34:50.448Z,91.94
2016-03-26T00:35:50.467Z,91.89
2016-03-26T00:36:50.486Z,92.18
2016-03-26T00:37:50.503Z,92.27
2016-03-26T00:38:50.507Z,92.42
2016-03-26T00:39:50.525Z,92.37
2016-03-26T00:40:50.543Z,91.8
2016-03-26T00:41:50.565Z,92.18
2016-03-26T00:42:50.568Z,91.99
2016-03-26T00:43:50.586Z,92.13
2016-03-26T00:44:50.604Z,92.37
2016-03-26T00:45:50.639Z,92.27
2016-03-26T00:46:50.642Z,92.18
2016-03-26T00:47:50.659Z,92.23
2016-03-26T00:48:50.694Z,92.51
2016-03-26T00:49:50.681Z,92.13
2016-03-26T00:50:50.714Z,92.37
2016-03-26T00:51:50.748Z,91.94
2016-03-26T00:52:50.750Z,91.99
2016-03-26T00:53:50.770Z,91.8
2016-03-26T00:54:50.788Z,92.18
2016-03-26T00:55:50.791Z,92.37
2016-03-26T00:56:50.808Z,92.08
2016-03-26T00:57:50.843Z,92.27
2016-03-26T00:58:50.846Z,92.37
2016-03-26T00:59:50.864Z,92.08
2016-03-26T01:00:50.882Z,91.89
2016-03-26T01:01:50.885Z,92.27
2016-03-26T01:02:50.903Z,91.89
2016-03-26T01:03:50.922Z,92.37
2016-03-26T01:04:50.940Z,92.42
2016-03-26T01:05:50.957Z,92.37
2016-03-26T01:06:50.992Z,92.18
2016-03-26T01:07:50.996Z,92.42
2016-03-26T01:08:51.013Z,92.75
2016-03-26T01:09:51.032Z,92.32
2016-03-26T01:10:51.050Z,92.51
2016-03-26T01:11:51.084Z,92.04
2016-03-26T01:12:51.088Z,92.27
2016-03-26T01:13:51.106Z,91.85
2016-03-26T01:14:51.108Z,92.18
2016-03-26T01:15:51.143Z,91.8
2016-03-26T01:16:51.146Z,92.18
2016-03-26T01:17:51.179Z,92.27
2016-03-26T01:18:51.181Z,92.18
2016-03-26T01:19:51.199Z,92.37
2016-03-26T01:20:51.218Z,92.13
2016-03-26T01:21:51.237Z,92.51
2016-03-26T01:22:51.239Z,92.85
2016-03-26T01:23:51.257Z,92.71
2016-03-26T01:24:51.276Z,92.61
2016-03-26T01:25:51.294Z,92.66
2016-03-26T01:26:51.484Z,92.51
2016-03-26T01:27:51.331Z,92.66
2016-03-26T01:28:51.348Z,92.94
2016-03-26T01:29:51.367Z,92.75
2016-03-26T01:30:51.386Z,92.56
2016-03-26T01:31:51.404Z,92.9
2016-03-26T01:32:51.423Z,92.85
2016-03-26T01:33:51.424Z,92.71
2016-03-26T01:34:51.444Z,92.8
2016-03-26T01:35:51.477Z,93.18
2016-03-26T01:36:51.495Z,92.61
2016-03-26T01:37:51.497Z,92.85
2016-03-26T01:38:51.516Z,92.9
2016-03-26T01:39:51.535Z,92.13
2016-03-26T01:40:51.552Z,92.66
2016-03-26T01:41:51.572Z,92.56
2016-03-26T01:42:51.590Z,92.18
2016-03-26T01:43:51.608Z,92.8
2016-03-26T01:44:51.611Z,92.75
2016-03-26T01:45:51.630Z,92.71
2016-03-26T01:46:51.663Z,92.94
2016-03-26T01:47:51.665Z,92.71
2016-03-26T01:48:51.684Z,92.56
2016-03-26T01:49:51.702Z,93.08
2016-03-26T01:50:51.721Z,92.85
2016-03-26T01:51:51.723Z,92.56
2016-03-26T01:52:51.757Z,92.85
2016-03-26T01:53:51.776Z,92.75
2016-03-26T01:54:51.793Z,92.66
2016-03-26T01:55:51.812Z,92.71
2016-03-26T01:56:51.815Z,92.51
2016-03-26T01:57:51.833Z,92.75
2016-03-26T01:58:51.867Z,92.71
2016-03-26T01:59:51.869Z,92.71
2016-03-26T02:00:51.888Z,92.94
2016-03-26T02:01:51.907Z,92.71
2016-03-26T02:02:51.909Z,93.37
2016-03-26T02:03:51.943Z,93.46
2016-03-26T02:04:51.962Z,93.37
2016-03-26T02:05:51.980Z,93.37
2016-03-26T02:06:51.998Z,93.51
2016-03-26T02:07:52.000Z,93.65
2016-03-26T02:08:52.019Z,93.84
2016-03-26T02:09:52.038Z,93.56
2016-03-26T02:10:52.055Z,93.94
2016-03-26T02:11:52.058Z,94.13
2016-03-26T02:12:51.327Z,93.99
2016-03-26T02:13:52.111Z,93.94
2016-03-26T02:14:52.113Z,93.65
2016-03-26T02:15:52.147Z,93.94
2016-03-26T02:16:52.150Z,93.65
2016-03-26T02:17:52.169Z,94.03
2016-03-26T02:18:52.187Z,93.79
2016-03-26T02:19:52.205Z,93.84
2016-03-26T02:20:52.223Z,93.75
2016-03-26T02:21:52.241Z,94.42
2016-03-26T02:22:52.260Z,94.23
2016-03-26T02:23:52.278Z,94.03
2016-03-26T02:24:52.281Z,94.42
2016-03-26T02:25:52.314Z,94.32
2016-03-26T02:26:52.317Z,93.84
2016-03-26T02:27:52.336Z,94.03
2016-03-26T02:28:52.354Z,94.32
2016-03-26T02:29:52.373Z,94.23
2016-03-26T02:30:52.391Z,94.79
2016-03-26T02:31:52.409Z,94.32
2016-03-26T02:32:52.412Z,94.23
2016-03-26T02:33:52.445Z,93.7
2016-03-26T02:34:52.464Z,93.84
2016-03-26T02:35:52.466Z,93.84
2016-03-26T02:36:52.485Z,93.84
2016-03-26T02:37:52.503Z,94.03
2016-03-26T02:38:52.521Z,93.75
2016-03-26T02:39:52.540Z,94.03
2016-03-26T02:40:52.558Z,94.32
2016-03-26T02:41:52.561Z,94.23
2016-03-26T02:42:52.579Z,93.94
2016-03-26T02:43:52.597Z,93.56
2016-03-26T02:44:52.616Z,93.65
2016-03-26T02:45:52.650Z,93.99
2016-03-26T02:46:52.652Z,93.75
2016-03-26T02:47:52.671Z,93.51
2016-03-26T02:48:52.705Z,94.13
2016-03-26T02:49:52.551Z,93.94
2016-03-26T02:50:52.726Z,93.75
2016-03-26T02:51:52.743Z,94.03
2016-03-26T02:52:52.607Z,94.03
2016-03-26T02:53:52.781Z,93.65
2016-03-26T02:54:52.784Z,94.03
2016-03-26T02:55:52.802Z,94.03
2016-03-26T02:56:52.820Z,94.23
2016-03-26T02:57:52.838Z,93.75
2016-03-26T02:58:52.685Z,93.94
2016-03-26T02:59:52.875Z,93.84
2016-03-26T03:00:52.737Z,93.84
2016-03-26T03:01:52.896Z,94.32
2016-03-26T03:02:52.915Z,94.32
2016-03-26T03:03:52.948Z,94.98
2016-03-26T03:04:52.967Z,94.23
2016-03-26T03:05:52.970Z,94.32
2016-03-26T03:06:52.831Z,94.32
2016-03-26T03:07:53.006Z,94.6
2016-03-26T03:08:53.025Z,94.32
2016-03-26T03:09:53.027Z,93.65
2016-03-26T03:10:53.061Z,94.23
2016-03-26T03:11:53.079Z,93.75
2016-03-26T03:12:53.083Z,93.94
2016-03-26T03:13:53.100Z,94.03
2016-03-26T03:14:53.133Z,94.03
2016-03-26T03:15:53.152Z,93.84
2016-03-26T03:16:53.155Z,94.32
2016-03-26T03:17:53.174Z,94.23
2016-03-26T03:18:53.191Z,94.13
2016-03-26T03:19:53.210Z,94.23
2016-03-26T03:20:53.213Z,94.79
2016-03-26T03:21:53.246Z,94.6
2016-03-26T03:22:53.249Z,94.6
2016-03-26T03:23:53.268Z,94.7
2016-03-26T03:24:53.285Z,94.42
2016-03-26T03:25:53.304Z,94.32
2016-03-26T03:26:53.323Z,93.75
2016-03-26T03:27:53.340Z,93.84
2016-03-26T03:28:53.359Z,93.65
2016-03-26T03:29:53.362Z,94.6
2016-03-26T03:30:53.381Z,94.79
2016-03-26T03:31:53.398Z,94.79
2016-03-26T03:32:53.432Z,94.79
2016-03-26T03:33:53.450Z,94.23
2016-03-26T03:34:53.454Z,94.13
2016-03-26T03:35:53.473Z,94.13
2016-03-26T03:36:53.490Z,94.32
2016-03-26T03:37:53.509Z,94.6
2016-03-26T03:38:53.528Z,94.6
2016-03-26T03:39:53.561Z,94.13
2016-03-26T03:40:53.548Z,94.13
2016-03-26T03:41:53.567Z,94.79
2016-03-26T03:42:53.585Z,94.23
2016-03-26T03:43:53.603Z,94.32
2016-03-26T03:44:53.653Z,94.42
2016-03-26T03:45:53.655Z,93.94
2016-03-26T03:46:53.658Z,94.6
2016-03-26T03:47:53.691Z,94.6
2016-03-26T03:48:53.538Z,94.6
2016-03-26T03:49:53.713Z,94.6
2016-03-26T03:50:53.716Z,94.89
2016-03-26T03:51:53.749Z,93.94
2016-03-26T03:52:53.752Z,93.56
2016-03-26T03:53:53.786Z,94.03
2016-03-26T03:54:53.788Z,93.75
2016-03-26T03:55:53.823Z,93.65
2016-03-26T03:56:53.826Z,93.56
2016-03-26T03:57:53.828Z,93.65
2016-03-26T03:58:53.847Z,93.37
2016-03-26T03:59:53.865Z,93.56
2016-03-26T04:00:53.882Z,93.37
2016-03-26T04:01:53.918Z,93.27
2016-03-26T04:02:53.935Z,93.37
2016-03-26T04:03:53.937Z,93.37
2016-03-26T04:04:53.956Z,93.56
2016-03-26T04:05:53.975Z,93.46
2016-03-26T04:06:53.992Z,92.99
2016-03-26T04:07:54.012Z,93.56
2016-03-26T04:08:54.014Z,93.37
2016-03-26T04:09:54.047Z,93.56
2016-03-26T04:10:54.051Z,93.37
2016-03-26T04:11:54.069Z,93.37
2016-03-26T04:12:54.086Z,93.37
2016-03-26T04:13:54.106Z,93.08
2016-03-26T04:14:54.124Z,92.71
2016-03-26T04:15:54.127Z,92.71
2016-03-26T04:16:54.161Z,92.71
2016-03-26T04:17:54.163Z,92.8
2016-03-26T04:18:54.181Z,92.61
2016-03-26T04:19:54.200Z,92.9
2016-03-26T04:20:54.233Z,92.9
2016-03-26T04:21:54.252Z,92.71
2016-03-26T04:22:54.254Z,92.32
2016-03-26T04:23:54.274Z,92.71
2016-03-26T04:24:54.276Z,92.99
2016-03-26T04:25:54.325Z,92.32
2016-03-26T04:26:54.312Z,92.51
2016-03-26T04:27:54.346Z,92.61
2016-03-26T04:28:54.365Z,92.71
2016-03-26T04:29:54.382Z,91.94
2016-03-26T04:30:54.385Z,92.04
2016-03-26T04:31:54.420Z,92.99
2016-03-26T04:32:54.423Z,92.13
2016-03-26T04:33:54.456Z,91.94
2016-03-26T04:34:54.459Z,92.23
2016-03-26T04:35:54.306Z,92.61
2016-03-26T04:36:54.495Z,92.32
2016-03-26T04:37:54.498Z,92.9
2016-03-26T04:38:54.517Z,92.8
2016-03-26T04:39:54.534Z,93.18
2016-03-26T04:40:54.554Z,92.61
2016-03-26T04:41:54.572Z,92.9
2016-03-26T04:42:54.605Z,92.8
2016-03-26T04:43:54.623Z,92.61
2016-03-26T04:44:54.626Z,92.9
2016-03-26T04:45:54.632Z,92.61
2016-03-26T04:46:54.652Z,93.37
2016-03-26T04:47:54.670Z,93.37
2016-03-26T04:48:54.687Z,92.99
2016-03-26T04:49:54.707Z,93.37
2016-03-26T04:50:54.740Z,93.27
2016-03-26T04:51:54.742Z,93.37
2016-03-26T04:52:54.762Z,93.27
2016-03-26T04:53:54.779Z,92.9
2016-03-26T04:54:54.798Z,93.37
2016-03-26T04:55:54.816Z,93.18
2016-03-26T04:56:54.819Z,93.18
2016-03-26T04:57:54.836Z,93.27
2016-03-26T04:58:54.856Z,93.27
2016-03-26T04:59:54.889Z,93.46
2016-03-26T05:00:54.875Z,93.27
2016-03-26T05:01:54.926Z,93.46
2016-03-26T05:02:54.928Z,93.65
2016-03-26T05:03:54.931Z,94.23
2016-03-26T05:04:54.950Z,93.75
2016-03-26T05:05:54.968Z,94.03
2016-03-26T05:06:55.002Z,93.84
2016-03-26T05:07:55.005Z,93.84
2016-03-26T05:08:55.038Z,93.65
2016-03-26T05:09:55.041Z,93.65
2016-03-26T05:10:55.060Z,93.94
2016-03-26T05:11:55.063Z,94.03
2016-03-26T05:12:55.346Z,94.03
2016-03-26T05:13:55.115Z,94.03
2016-03-26T05:14:55.118Z,93.94
2016-03-26T05:15:55.135Z,94.13
2016-03-26T05:16:55.153Z,93.75
2016-03-26T05:17:55.187Z,93.65
2016-03-26T05:18:55.190Z,93.65
2016-03-26T05:19:55.193Z,93.75
2016-03-26T05:20:55.227Z,93.75
2016-03-26T05:21:55.245Z,93.56
2016-03-26T05:22:55.264Z,93.65
2016-03-26T05:23:55.282Z,93.65
2016-03-26T05:24:55.300Z,93.84
2016-03-26T05:25:55.303Z,93.84
2016-03-26T05:26:55.321Z,93.65
2016-03-26T05:27:55.308Z,94.42
2016-03-26T05:28:55.359Z,94.03
2016-03-26T05:29:55.376Z,94.03
2016-03-26T05:30:55.394Z,93.84
2016-03-26T05:31:55.414Z,93.94
2016-03-26T05:32:55.416Z,93.94
2016-03-26T05:33:55.449Z,93.75
2016-03-26T05:34:55.452Z,93.75
2016-03-26T05:35:55.470Z,93.65
2016-03-26T05:36:55.488Z,93.94
2016-03-26T05:37:55.508Z,93.84
2016-03-26T05:38:55.541Z,94.03
2016-03-26T05:39:55.544Z,93.56
2016-03-26T05:40:55.563Z,93.65
2016-03-26T05:41:55.580Z,94.03
2016-03-26T05:42:55.613Z,94.03
2016-03-26T05:43:55.617Z,94.03
2016-03-26T05:44:55.619Z,93.94
2016-03-26T05:45:55.638Z,94.13
2016-03-26T05:46:55.657Z,93.56
2016-03-26T05:47:55.690Z,93.75
2016-03-26T05:48:55.677Z,94.23
2016-03-26T05:49:55.712Z,94.23
2016-03-26T05:50:55.729Z,93.94
2016-03-26T05:51:55.732Z,93.65
2016-03-26T05:52:55.871Z,93.46
2016-03-26T05:53:55.819Z,93.37
2016-03-26T05:54:55.621Z,93.08
2016-03-26T05:55:55.796Z,93.37
2016-03-26T05:56:56.289Z,93.27
2016-03-26T05:57:55.949Z,93.37
2016-03-26T05:58:55.842Z,92.9
2016-03-26T05:59:55.860Z,92.71
2016-03-26T06:00:55.878Z,92.32
2016-03-26T06:01:55.912Z,92.04
2016-03-26T06:02:55.931Z,92.13
2016-03-26T06:03:55.933Z,92.46
2016-03-26T06:04:55.952Z,92.32
2016-03-26T06:05:55.965Z,92.23
2016-03-26T06:06:55.975Z,91.99
2016-03-26T06:07:55.988Z,91.99
2016-03-26T06:08:55.983Z,91.61
2016-03-26T06:09:56.008Z,91.42
2016-03-26T06:10:56.006Z,91.42
2016-03-26T06:11:56.021Z,91.52
2016-03-26T06:12:56.020Z,91.33
2016-03-26T06:13:56.052Z,91.13
2016-03-26T06:14:56.066Z,90.94
2016-03-26T06:15:56.083Z,91.13
2016-03-26T06:16:56.100Z,90.66
2016-03-26T06:17:56.102Z,90.28
2016-03-26T06:18:56.119Z,90.19
2016-03-26T06:19:56.137Z,89.8
2016-03-26T06:20:56.154Z,89.71
2016-03-26T06:21:56.172Z,89.52
2016-03-26T06:22:56.205Z,89.23
2016-03-26T06:23:56.207Z,89.23
2016-03-26T06:24:56.225Z,89.28
2016-03-26T06:25:56.244Z,89.09
2016-03-26T06:26:56.262Z,88.67
2016-03-26T06:27:56.281Z,88.57
2016-03-26T06:28:56.284Z,88.47
2016-03-26T06:29:56.317Z,87.66
2016-03-26T06:30:56.319Z,87.38
2016-03-26T06:31:56.339Z,87.47
2016-03-26T06:32:56.372Z,87.38
2016-03-26T06:33:56.374Z,86.71
2016-03-26T06:34:56.393Z,86.43
2016-03-26T06:35:56.427Z,86.33
2016-03-26T06:36:56.445Z,86.14
2016-03-26T06:37:56.447Z,85.47
2016-03-26T06:38:56.482Z,85.1
2016-03-26T06:39:56.484Z,85.1
2016-03-26T06:40:56.502Z,85.66
2016-03-26T06:41:56.521Z,84.62
2016-03-26T06:42:56.540Z,84.24
2016-03-26T06:43:56.557Z,84.14
2016-03-26T06:44:56.561Z,83.95
2016-03-26T06:45:56.594Z,84
2016-03-26T06:46:56.612Z,83.62
2016-03-26T06:47:56.632Z,83.71
2016-03-26T06:48:56.649Z,82.76
2016-03-26T06:49:56.667Z,82.57
2016-03-26T06:50:56.687Z,82.19
2016-03-26T06:51:56.704Z,81.52
2016-03-26T06:52:56.723Z,81.62
2016-03-26T06:53:56.740Z,81.24
2016-03-26T06:54:56.759Z,80.76
2016-03-26T06:55:56.762Z,80.76
2016-03-26T06:56:56.795Z,79.81
2016-03-26T06:57:56.814Z,79.05
2016-03-26T06:58:56.816Z,78.38
2016-03-26T06:59:56.851Z,78.48
2016-03-26T07:00:56.869Z,78.33
2016-03-26T07:01:56.872Z,78.14
2016-03-26T07:02:56.906Z,77.76
2016-03-26T07:03:56.924Z,77.19
2016-03-26T07:04:56.942Z,77.09
2016-03-26T07:05:56.945Z,77.19
2016-03-26T07:06:56.963Z,77.56
2016-03-26T07:07:56.982Z,78.14
2016-03-26T07:08:57.016Z,77.76
2016-03-26T07:09:57.034Z,77.66
2016-03-26T07:10:57.052Z,76.81
2016-03-26T07:11:57.054Z,76.52
2016-03-26T07:12:57.074Z,76.9
2016-03-26T07:13:57.091Z,76.04
2016-03-26T07:14:57.109Z,75.47
2016-03-26T07:15:57.144Z,75.57
2016-03-26T07:16:57.146Z,75.42
2016-03-26T07:17:57.165Z,75.76
2016-03-26T07:18:57.199Z,75.47
2016-03-26T07:19:57.201Z,75.42
2016-03-26T07:20:57.235Z,74.33
2016-03-26T07:21:57.238Z,74.56
2016-03-26T07:22:57.256Z,73.85
2016-03-26T07:23:57.275Z,73
2016-03-26T07:24:57.309Z,72.85
2016-03-26T07:25:57.312Z,73.1
2016-03-26T07:26:57.189Z,73.32
2016-03-26T07:27:57.347Z,73.22
2016-03-26T07:28:57.367Z,73.03
2016-03-26T07:29:57.400Z,73.03
2016-03-26T07:30:57.402Z,72.17
2016-03-26T07:31:57.422Z,71.8
2016-03-26T07:32:57.439Z,71.61
2016-03-26T07:33:57.473Z,71.42
2016-03-26T07:34:57.492Z,71.8
2016-03-26T07:35:57.494Z,71.42
2016-03-26T07:36:57.528Z,70.75
2016-03-26T07:37:57.547Z,71.03
2016-03-26T07:38:57.565Z,71.22
2016-03-26T07:39:57.568Z,70.69
2016-03-26T07:40:57.602Z,70.65
2016-03-26T07:41:57.620Z,70.02
2016-03-26T07:42:57.638Z,69.64
2016-03-26T07:43:57.641Z,70.02
2016-03-26T07:44:57.675Z,70.31
2016-03-26T07:45:57.693Z,70.02
2016-03-26T07:46:57.711Z,69.93
2016-03-26T07:47:57.715Z,70.02
2016-03-26T07:48:57.748Z,68.59
2016-03-26T07:49:57.766Z,68.98
2016-03-26T07:50:57.785Z,68.59
2016-03-26T07:51:57.803Z,68.3
2016-03-26T07:52:57.837Z,68.3
2016-03-26T07:53:57.840Z,68.12
2016-03-26T07:54:57.858Z,68.98
2016-03-26T07:55:57.876Z,68.59
2016-03-26T07:56:57.895Z,67.93
2016-03-26T07:57:57.913Z,67.16
2016-03-26T07:58:57.932Z,66.88
2016-03-26T07:59:57.950Z,66.69
2016-03-26T08:00:57.984Z,67.1
2016-03-26T08:01:57.986Z,66.72
2016-03-26T08:02:58.004Z,66.82
2016-03-26T08:03:58.023Z,66.91
2016-03-26T08:04:58.056Z,66.91
2016-03-26T08:05:58.059Z,67.96
2016-03-26T08:06:58.109Z,67.1
2016-03-26T08:07:58.174Z,66.82
2016-03-26T08:08:58.130Z,67.96
2016-03-26T08:09:58.149Z,67.96
2016-03-26T08:10:58.182Z,67.68
2016-03-26T08:11:58.185Z,67.1
2016-03-26T08:12:58.203Z,67.68
2016-03-26T08:13:58.221Z,67.39
2016-03-26T08:14:58.240Z,67.68
2016-03-26T08:15:58.274Z,67.58
2016-03-26T08:16:58.277Z,67.68
2016-03-26T08:17:58.295Z,68.44
2016-03-26T08:18:58.328Z,68.34
2016-03-26T08:19:58.332Z,67.48
2016-03-26T08:20:58.365Z,67.48
2016-03-26T08:21:58.384Z,66.72
2016-03-26T08:22:58.402Z,67
2016-03-26T08:23:58.420Z,67.1
2016-03-26T08:24:58.439Z,67.2
2016-03-26T08:25:58.457Z,66.91
2016-03-26T08:26:58.476Z,67
2016-03-26T08:27:58.493Z,66.69
2016-03-26T08:28:58.512Z,66.5
2016-03-26T08:29:58.531Z,66.91
2016-03-26T08:30:58.548Z,66.69
2016-03-26T08:31:58.567Z,66.91
2016-03-26T08:32:58.601Z,67.1
2016-03-26T08:33:58.619Z,65.58
2016-03-26T08:34:58.637Z,65.67
2016-03-26T08:35:58.639Z,66.24
2016-03-26T08:36:58.675Z,66.24
2016-03-26T08:37:58.692Z,66.34
2016-03-26T08:38:58.710Z,65.1
2016-03-26T08:39:58.714Z,65.39
2016-03-26T08:40:58.735Z,65.58
2016-03-26T08:41:58.754Z,65.58
2016-03-26T08:42:58.788Z,65.58
2016-03-26T08:43:58.806Z,66.05
2016-03-26T08:44:58.825Z,65.67
2016-03-26T08:45:58.827Z,65.39
2016-03-26T08:46:58.861Z,65.67
2016-03-26T08:47:58.864Z,65.48
2016-03-26T08:48:58.897Z,65.29
2016-03-26T08:49:58.917Z,65.2
2016-03-26T08:50:58.934Z,64.43
2016-03-26T08:51:58.953Z,63.57
2016-03-26T08:52:58.986Z,64.43
2016-03-26T08:53:59.005Z,64.72
2016-03-26T08:54:59.008Z,65.1
2016-03-26T08:55:59.041Z,65.29
2016-03-26T08:56:59.061Z,65.2
2016-03-26T08:57:59.063Z,65.48
2016-03-26T08:58:59.081Z,65.86
2016-03-26T08:59:59.100Z,65.58
2016-03-26T09:00:59.133Z,65.86
2016-03-26T09:01:59.135Z,65.77
2016-03-26T09:02:59.169Z,64.34
2016-03-26T09:03:59.188Z,64.15
2016-03-26T09:04:59.207Z,65.33
2016-03-26T09:05:59.224Z,65.99
2016-03-26T09:06:59.259Z,65.33
2016-03-26T09:07:59.261Z,64.75
2016-03-26T09:08:59.280Z,64.56
2016-03-26T09:09:59.298Z,64.65
2016-03-26T09:10:59.316Z,63.99
2016-03-26T09:11:59.351Z,63.51
2016-03-26T09:12:59.368Z,63.99
2016-03-26T09:13:59.387Z,63.7
2016-03-26T09:14:59.405Z,63.51
2016-03-26T09:15:59.423Z,64.09
2016-03-26T09:16:59.442Z,64.18
2016-03-26T09:17:59.460Z,63.6
2016-03-26T09:18:59.478Z,63.51
2016-03-26T09:19:59.497Z,63.8
2016-03-26T09:20:59.515Z,64.18
2016-03-26T09:21:59.533Z,64.47
2016-03-26T09:22:59.552Z,64.75
2016-03-26T09:23:59.570Z,65.23
2016-03-26T09:24:59.603Z,64.37
2016-03-26T09:25:59.606Z,64.56
2016-03-26T09:26:59.641Z,64.18
2016-03-26T09:27:59.643Z,64.47
2016-03-26T09:28:59.661Z,64.28
2016-03-26T09:29:59.696Z,64.56
2016-03-26T09:30:59.729Z,64.75
2016-03-26T09:31:59.732Z,63.8
2016-03-26T09:32:59.750Z,63.89
2016-03-26T09:33:59.785Z,64.37
2016-03-26T09:34:59.818Z,64.47
2016-03-26T09:35:59.821Z,64.56
2016-03-26T09:36:59.840Z,64.09
2016-03-26T09:37:59.857Z,64.28
2016-03-26T09:38:59.860Z,64.69
2016-03-26T09:39:59.894Z,64.65
2016-03-26T09:40:59.928Z,64.47
2016-03-26T09:41:59.931Z,62.94
2016-03-26T09:42:59.965Z,62.59
2016-03-26T09:43:59.967Z,62.75
2016-03-26T09:45:00.001Z,63.64
2016-03-26T09:46:00.019Z,62.68
2016-03-26T09:47:00.037Z,62.4
2016-03-26T09:48:00.056Z,61.92
2016-03-26T09:49:00.074Z,61.25
2016-03-26T09:50:00.092Z,61.92
2016-03-26T09:51:00.111Z,61.44
2016-03-26T09:52:00.145Z,61.44
2016-03-26T09:53:00.147Z,61.92
2016-03-26T09:54:00.166Z,61.16
2016-03-26T09:55:00.184Z,61.16
2016-03-26T09:56:00.219Z,61.6
2016-03-26T09:57:00.221Z,61.8
2016-03-26T09:58:00.239Z,61.54
2016-03-26T09:59:00.274Z,61.35
2016-03-26T10:00:00.291Z,61.07
2016-03-26T10:01:00.325Z,60.97
2016-03-26T10:02:00.344Z,61.63
2016-03-26T10:03:00.346Z,61.7
2016-03-26T10:04:00.381Z,61.25
2016-03-26T10:05:00.399Z,61.44
2016-03-26T10:06:00.417Z,61.07
2016-03-26T10:07:00.435Z,62.02
2016-03-26T10:08:00.438Z,61.07
2016-03-26T10:09:00.472Z,60.58
2016-03-26T10:10:00.506Z,61.35
2016-03-26T10:11:00.524Z,61.25
2016-03-26T10:12:00.526Z,61.35
2016-03-26T10:13:00.562Z,61.35
2016-03-26T10:14:00.564Z,61.35
2016-03-26T10:15:00.582Z,61.07
2016-03-26T10:16:00.616Z,60.68
2016-03-26T10:17:00.635Z,60.78
2016-03-26T10:18:00.668Z,60.49
2016-03-26T10:19:00.670Z,60.21
2016-03-26T10:20:00.689Z,60.04
2016-03-26T10:21:00.708Z,59.85
2016-03-26T10:22:00.726Z,59.16
2016-03-26T10:23:00.744Z,58.97
2016-03-26T10:24:00.762Z,59.73
2016-03-26T10:25:00.781Z,59.85
2016-03-26T10:26:00.814Z,59.47
2016-03-26T10:27:00.833Z,59.19
2016-03-26T10:28:00.852Z,60.14
2016-03-26T10:29:00.870Z,58.99
2016-03-26T10:30:00.888Z,58.51
2016-03-26T10:31:00.922Z,58.8
2016-03-26T10:32:00.924Z,58.8
2016-03-26T10:33:00.943Z,58.61
2016-03-26T10:34:00.961Z,58.42
2016-03-26T10:35:00.996Z,58.33
2016-03-26T10:36:01.013Z,58.8
2016-03-26T10:37:01.032Z,58.61
2016-03-26T10:38:01.050Z,58.9
2016-03-26T10:39:00.318Z,58.51
2016-03-26T10:40:01.102Z,58.42
2016-03-26T10:41:01.105Z,57.94
2016-03-26T10:42:01.144Z,58.42
2016-03-26T10:43:01.162Z,58.14
2016-03-26T10:44:01.181Z,58.8
2016-03-26T10:45:01.198Z,58.99
2016-03-26T10:46:01.217Z,58.51
2016-03-26T10:47:01.236Z,59.28
2016-03-26T10:48:01.270Z,59.19
2016-03-26T10:49:01.272Z,58.99
2016-03-26T10:50:01.306Z,59.19
2016-03-26T10:51:01.308Z,59.19
2016-03-26T10:52:01.343Z,59.28
2016-03-26T10:53:01.361Z,59.28
2016-03-26T10:54:01.380Z,58.51
2016-03-26T10:55:01.397Z,57.75
2016-03-26T10:56:01.431Z,57.56
2016-03-26T10:57:01.450Z,57.37
2016-03-26T10:58:01.469Z,57.65
2016-03-26T10:59:01.518Z,57.85
2016-03-26T11:00:01.505Z,57.65
2016-03-26T11:01:01.523Z,58.14
2016-03-26T11:02:01.541Z,57.75
2016-03-26T11:03:01.560Z,58.14
2016-03-26T11:04:01.593Z,57.28
2016-03-26T11:05:01.612Z,57.46
2016-03-26T11:06:01.630Z,57.85
2016-03-26T11:07:01.649Z,57.75
2016-03-26T11:08:01.667Z,56.99
2016-03-26T11:09:01.685Z,56.6
2016-03-26T11:10:01.704Z,56.6
2016-03-26T11:11:01.738Z,57.46
2016-03-26T11:12:01.740Z,56.41
2016-03-26T11:13:01.759Z,56.8
2016-03-26T11:14:01.808Z,56.41
2016-03-26T11:15:01.811Z,56.41
2016-03-26T11:16:01.829Z,56.51
2016-03-26T11:17:01.848Z,56.73
2016-03-26T11:18:01.865Z,56.7
2016-03-26T11:19:01.884Z,55.84
2016-03-26T11:20:01.918Z,56.8
2016-03-26T11:21:01.936Z,55.84
2016-03-26T11:22:01.939Z,55.94
2016-03-26T11:23:01.973Z,56.13
2016-03-26T11:24:01.991Z,55.75
2016-03-26T11:25:02.009Z,55.94
2016-03-26T11:26:02.028Z,56.06
2016-03-26T11:27:02.046Z,55.77
2016-03-26T11:28:02.080Z,56.06
2016-03-26T11:29:01.958Z,55.96
2016-03-26T11:30:02.117Z,56.06
2016-03-26T11:31:02.150Z,55.4
2016-03-26T11:32:02.169Z,55.49
2016-03-26T11:33:02.171Z,55.3
2016-03-26T11:34:02.190Z,56.16
2016-03-26T11:35:02.224Z,54.82
2016-03-26T11:36:02.243Z,55.01
2016-03-26T11:37:02.260Z,55.01
2016-03-26T11:38:02.279Z,54.34
2016-03-26T11:39:02.296Z,54.44
2016-03-26T11:40:02.332Z,54.63
2016-03-26T11:41:02.349Z,54.63
2016-03-26T11:42:02.368Z,54.63
2016-03-26T11:43:02.386Z,54.44
2016-03-26T11:44:02.420Z,54.37
2016-03-26T11:45:02.437Z,54.53
2016-03-26T11:46:02.457Z,54.53
2016-03-26T11:47:02.475Z,54.91
2016-03-26T11:48:02.478Z,55.11
2016-03-26T11:49:02.511Z,54.82
2016-03-26T11:50:02.531Z,54.82
2016-03-26T11:51:02.548Z,55.4
2016-03-26T11:52:02.567Z,54.18
2016-03-26T11:53:02.584Z,53.7
2016-03-26T11:54:02.603Z,53.41
2016-03-26T11:55:02.636Z,53.96
2016-03-26T11:56:02.656Z,54.34
2016-03-26T11:57:02.674Z,54.56
2016-03-26T11:58:02.692Z,53.22
2016-03-26T11:59:02.788Z,53.41
2016-03-26T12:00:02.729Z,53.7
2016-03-26T12:01:02.763Z,53.03
2016-03-26T12:02:02.781Z,53.13
2016-03-26T12:03:02.815Z,53.41
2016-03-26T12:04:02.818Z,53.13
2016-03-26T12:05:02.835Z,53.22
2016-03-26T12:06:02.869Z,53.41
2016-03-26T12:07:02.732Z,54.27
2016-03-26T12:08:02.907Z,53.41
2016-03-26T12:09:02.924Z,53.13
2016-03-26T12:10:02.943Z,53.41
2016-03-26T12:11:02.962Z,53.13
2016-03-26T12:12:02.980Z,52.94
2016-03-26T12:13:03.013Z,52.75
2016-03-26T12:14:03.031Z,52.94
2016-03-26T12:15:03.050Z,52.84
2016-03-26T12:16:03.084Z,52.65
2016-03-26T12:17:03.118Z,52.58
2016-03-26T12:18:03.121Z,52.65
2016-03-26T12:19:03.139Z,52.2
2016-03-26T12:20:03.173Z,51.81
2016-03-26T12:21:03.176Z,52.2
2016-03-26T12:22:03.195Z,51.62
2016-03-26T12:23:03.228Z,52.1
2016-03-26T12:24:03.262Z,51.43
2016-03-26T12:25:03.280Z,51.15
2016-03-26T12:26:03.283Z,51.91
2016-03-26T12:27:03.316Z,51.43
2016-03-26T12:28:03.336Z,51.34
2016-03-26T12:29:03.353Z,51.72
2016-03-26T12:30:03.356Z,52.1
2016-03-26T12:31:03.405Z,52.39
2016-03-26T12:32:03.409Z,52.29
2016-03-26T12:33:03.441Z,52.29
2016-03-26T12:34:03.461Z,52.01
2016-03-26T12:35:03.479Z,51.05
2016-03-26T12:36:03.497Z,51.34
2016-03-26T12:37:03.515Z,51.05
2016-03-26T12:38:03.550Z,51.15
2016-03-26T12:39:02.818Z,50.57
2016-03-26T12:40:03.586Z,50.76
2016-03-26T12:41:03.604Z,50.09
2016-03-26T12:42:03.623Z,50
2016-03-26T12:43:03.641Z,50.09
2016-03-26T12:44:03.660Z,49.9
2016-03-26T12:45:03.693Z,50.29
2016-03-26T12:46:03.712Z,50.76
2016-03-26T12:47:03.730Z,50.95
2016-03-26T12:48:03.748Z,51.05
2016-03-26T12:49:03.767Z,51.34
2016-03-26T12:50:03.801Z,51.24
2016-03-26T12:51:03.819Z,51.05
2016-03-26T12:52:03.837Z,51.15
2016-03-26T12:53:03.856Z,50.38
2016-03-26T12:54:03.889Z,50.48
2016-03-26T12:55:03.908Z,50.29
2016-03-26T12:56:03.926Z,50.86